sensor_id;sensor_type;location;lat;lon;timestamp;pressure;altitude;pressure_sealevel;temperature;humidity
64019;BME280;66942;52.138;5.216;2023-04-08T00:00:30;102323.0;;;13.26;62.29
64019;BME280;66942;52.138;5.216;2023-04-08T00:02:07;102322.0;;;13.14;62.81
64019;BME280;66942;52.138;5.216;2023-04-08T00:05:19;102328.0;;;12.96;63.22
64019;BME280;66942;52.138;5.216;2023-04-08T00:06:55;102327.0;;;12.95;63.33
64019;BME280;66942;52.138;5.216;2023-04-08T00:08:31;102333.0;;;13.3;62.29
64019;BME280;66942;52.138;5.216;2023-04-08T00:11:44;102332.0;;;13.71;60.93
64019;BME280;66942;52.138;5.216;2023-04-08T00:13:20;102333.0;;;13.31;61.98
64019;BME280;66942;52.138;5.216;2023-04-08T00:14:56;102331.0;;;13.09;62.92
64019;BME280;66942;52.138;5.216;2023-04-08T00:18:08;102330.0;;;13.14;62.96
64019;BME280;66942;52.138;5.216;2023-04-08T00:19:45;102330.0;;;13.17;62.65
64019;BME280;66942;52.138;5.216;2023-04-08T00:21:21;102327.0;;;13.22;62.62
64019;BME280;66942;52.138;5.216;2023-04-08T00:22:58;102330.0;;;13.29;62.64
64019;BME280;66942;52.138;5.216;2023-04-08T00:26:10;102331.0;;;13.38;62.5
64019;BME280;66942;52.138;5.216;2023-04-08T00:27:46;102333.0;;;13.65;61.81
64019;BME280;66942;52.138;5.216;2023-04-08T00:29:22;102335.0;;;13.51;62.28
64019;BME280;66942;52.138;5.216;2023-04-08T00:32:35;102332.0;;;13.41;62.52
64019;BME280;66942;52.138;5.216;2023-04-08T00:34:11;102333.0;;;13.81;61.54
64019;BME280;66942;52.138;5.216;2023-04-08T00:35:47;102330.0;;;13.59;61.92
64019;BME280;66942;52.138;5.216;2023-04-08T00:38:59;102333.0;;;13.93;60.97
64019;BME280;66942;52.138;5.216;2023-04-08T00:40:35;102337.0;;;13.92;60.89
64019;BME280;66942;52.138;5.216;2023-04-08T00:42:12;102334.0;;;13.7;61.61
64019;BME280;66942;52.138;5.216;2023-04-08T00:45:24;102334.0;;;13.81;60.89
64019;BME280;66942;52.138;5.216;2023-04-08T00:47:02;102334.0;;;13.92;60.64
64019;BME280;66942;52.138;5.216;2023-04-08T00:48:39;102336.0;;;13.41;61.93
64019;BME280;66942;52.138;5.216;2023-04-08T00:50:15;102333.0;;;13.06;63.11
64019;BME280;66942;52.138;5.216;2023-04-08T00:53:30;102332.0;;;13.01;63.24
64019;BME280;66942;52.138;5.216;2023-04-08T00:55:06;102335.0;;;13.58;61.61
64019;BME280;66942;52.138;5.216;2023-04-08T00:56:42;102333.0;;;13.78;60.79
64019;BME280;66942;52.138;5.216;2023-04-08T00:59:56;102340.0;;;13.52;61.46
64019;BME280;66942;52.138;5.216;2023-04-08T01:01:42;102340.0;;;13.36;62.06
64019;BME280;66942;52.138;5.216;2023-04-08T01:03:23;102339.0;;;13.08;62.7
64019;BME280;66942;52.138;5.216;2023-04-08T01:05:13;102345.0;;;13.05;63.17
64019;BME280;66942;52.138;5.216;2023-04-08T01:08:34;102345.0;;;13.17;62.48
64019;BME280;66942;52.138;5.216;2023-04-08T01:10:17;102340.0;;;13.47;61.2
64019;BME280;66942;52.138;5.216;2023-04-08T01:12:06;102342.0;;;13.01;62.53
64019;BME280;66942;52.138;5.216;2023-04-08T01:13:44;102344.0;;;13.08;62.45
64019;BME280;66942;52.138;5.216;2023-04-08T01:15:23;102348.0;;;13.4;61.6
64019;BME280;66942;52.138;5.216;2023-04-08T01:18:37;102349.0;;;13.39;61.18
64019;BME280;66942;52.138;5.216;2023-04-08T01:20:15;102348.0;;;13.52;60.94
64019;BME280;66942;52.138;5.216;2023-04-08T01:21:53;102348.0;;;13.22;61.79
64019;BME280;66942;52.138;5.216;2023-04-08T01:25:20;102349.0;;;13.41;60.91
64019;BME280;66942;52.138;5.216;2023-04-08T01:26:59;102349.0;;;13.5;60.87
64019;BME280;66942;52.138;5.216;2023-04-08T01:28:38;102353.0;;;13.52;60.68
64019;BME280;66942;52.138;5.216;2023-04-08T01:30:17;102349.0;;;13.5;60.79
64019;BME280;66942;52.138;5.216;2023-04-08T01:33:31;102355.0;;;13.29;61.29
64019;BME280;66942;52.138;5.216;2023-04-08T01:35:08;102352.0;;;13.05;62.06
64019;BME280;66942;52.138;5.216;2023-04-08T01:36:46;102357.0;;;13.29;61.5
64019;BME280;66942;52.138;5.216;2023-04-08T01:38:24;102351.0;;;13.12;61.96
64019;BME280;66942;52.138;5.216;2023-04-08T01:41:38;102356.0;;;12.96;62.22
64019;BME280;66942;52.138;5.216;2023-04-08T01:43:16;102359.0;;;12.97;62.24
64019;BME280;66942;52.138;5.216;2023-04-08T01:44:54;102358.0;;;12.88;62.58
64019;BME280;66942;52.138;5.216;2023-04-08T01:48:11;102362.0;;;13.01;62.51
64019;BME280;66942;52.138;5.216;2023-04-08T01:49:49;102361.0;;;13.33;61.23
64019;BME280;66942;52.138;5.216;2023-04-08T01:51:28;102362.0;;;13.32;61.36
64019;BME280;66942;52.138;5.216;2023-04-08T01:53:07;102366.0;;;13.4;60.89
64019;BME280;66942;52.138;5.216;2023-04-08T01:56:21;102365.0;;;12.87;62.31
64019;BME280;66942;52.138;5.216;2023-04-08T01:57:59;102363.0;;;12.88;62.37
64019;BME280;66942;52.138;5.216;2023-04-08T01:59:37;102362.0;;;12.99;62.15
64019;BME280;66942;52.138;5.216;2023-04-08T02:02:56;102361.0;;;12.82;62.27
64019;BME280;66942;52.138;5.216;2023-04-08T02:04:34;102362.0;;;12.66;62.95
64019;BME280;66942;52.138;5.216;2023-04-08T02:06:11;102359.0;;;13.08;61.46
64019;BME280;66942;52.138;5.216;2023-04-08T02:07:47;102363.0;;;12.98;61.7
64019;BME280;66942;52.138;5.216;2023-04-08T02:11:01;102365.0;;;12.96;61.42
64019;BME280;66942;52.138;5.216;2023-04-08T02:12:37;102363.0;;;12.91;61.85
64019;BME280;66942;52.138;5.216;2023-04-08T02:14:15;102366.0;;;12.93;61.72
64019;BME280;66942;52.138;5.216;2023-04-08T02:17:40;102359.0;;;12.96;61.66
64019;BME280;66942;52.138;5.216;2023-04-08T02:19:23;102362.0;;;12.74;61.97
64019;BME280;66942;52.138;5.216;2023-04-08T02:21:10;102362.0;;;12.55;62.35
64019;BME280;66942;52.138;5.216;2023-04-08T02:22:51;102362.0;;;12.56;62.54
64019;BME280;66942;52.138;5.216;2023-04-08T02:24:40;102362.0;;;12.47;63.05
64019;BME280;66942;52.138;5.216;2023-04-08T02:27:59;102364.0;;;12.55;62.75
64019;BME280;66942;52.138;5.216;2023-04-08T02:29:39;102364.0;;;12.61;62.82
64019;BME280;66942;52.138;5.216;2023-04-08T02:31:17;102366.0;;;12.7;62.38
64019;BME280;66942;52.138;5.216;2023-04-08T02:32:55;102369.0;;;12.74;62.4
64019;BME280;66942;52.138;5.216;2023-04-08T02:36:10;102365.0;;;12.68;62.74
64019;BME280;66942;52.138;5.216;2023-04-08T02:37:49;102366.0;;;12.92;61.92
64019;BME280;66942;52.138;5.216;2023-04-08T02:39:30;102363.0;;;12.67;62.79
64019;BME280;66942;52.138;5.216;2023-04-08T02:41:06;102361.0;;;12.81;62.34
64019;BME280;66942;52.138;5.216;2023-04-08T02:44:18;102363.0;;;13.17;61.33
64019;BME280;66942;52.138;5.216;2023-04-08T02:45:54;102368.0;;;13.29;60.85
64019;BME280;66942;52.138;5.216;2023-04-08T02:47:31;102376.0;;;12.96;61.39
64019;BME280;66942;52.138;5.216;2023-04-08T02:50:43;102377.0;;;13.2;60.79
64019;BME280;66942;52.138;5.216;2023-04-08T02:52:19;102380.0;;;13.02;61.15
64019;BME280;66942;52.138;5.216;2023-04-08T02:53:55;102372.0;;;12.92;61.42
64019;BME280;66942;52.138;5.216;2023-04-08T02:57:07;102378.0;;;12.7;62.0
64019;BME280;66942;52.138;5.216;2023-04-08T02:58:44;102376.0;;;12.75;61.87
64019;BME280;66942;52.138;5.216;2023-04-08T03:00:20;102380.0;;;12.74;61.77
64019;BME280;66942;52.138;5.216;2023-04-08T03:03:32;102383.0;;;12.68;62.34
64019;BME280;66942;52.138;5.216;2023-04-08T03:05:08;102380.0;;;12.86;61.76
64019;BME280;66942;52.138;5.216;2023-04-08T03:06:45;102380.0;;;12.74;61.86
64019;BME280;66942;52.138;5.216;2023-04-08T03:08:22;102382.0;;;12.64;62.6
64019;BME280;66942;52.138;5.216;2023-04-08T03:11:35;102389.0;;;12.48;62.76
64019;BME280;66942;52.138;5.216;2023-04-08T03:13:11;102388.0;;;12.57;62.66
64019;BME280;66942;52.138;5.216;2023-04-08T03:14:47;102390.0;;;12.76;62.27
64019;BME280;66942;52.138;5.216;2023-04-08T03:18:01;102385.0;;;12.76;61.92
64019;BME280;66942;52.138;5.216;2023-04-08T03:19:37;102385.0;;;12.78;61.73
64019;BME280;66942;52.138;5.216;2023-04-08T03:21:13;102389.0;;;12.35;63.31
64019;BME280;66942;52.138;5.216;2023-04-08T03:24:25;102391.0;;;12.33;63.48
64019;BME280;66942;52.138;5.216;2023-04-08T03:26:01;102388.0;;;12.7;62.34
64019;BME280;66942;52.138;5.216;2023-04-08T03:27:37;102390.0;;;12.75;62.11
64019;BME280;66942;52.138;5.216;2023-04-08T03:29:13;102385.0;;;12.61;62.39
64019;BME280;66942;52.138;5.216;2023-04-08T03:32:26;102388.0;;;12.93;61.68
64019;BME280;66942;52.138;5.216;2023-04-08T03:34:02;102381.0;;;12.92;61.56
64019;BME280;66942;52.138;5.216;2023-04-08T03:35:38;102389.0;;;12.8;61.83
64019;BME280;66942;52.138;5.216;2023-04-08T03:38:49;102390.0;;;12.49;62.79
64019;BME280;66942;52.138;5.216;2023-04-08T03:40:26;102392.0;;;12.47;62.91
64019;BME280;66942;52.138;5.216;2023-04-08T03:42:02;102393.0;;;12.52;62.59
64019;BME280;66942;52.138;5.216;2023-04-08T03:45:14;102391.0;;;12.56;62.64
64019;BME280;66942;52.138;5.216;2023-04-08T03:46:50;102397.0;;;12.92;61.92
64019;BME280;66942;52.138;5.216;2023-04-08T03:48:26;102393.0;;;12.82;61.85
64019;BME280;66942;52.138;5.216;2023-04-08T03:51:38;102402.0;;;12.85;61.73
64019;BME280;66942;52.138;5.216;2023-04-08T03:53:15;102397.0;;;12.87;61.91
64019;BME280;66942;52.138;5.216;2023-04-08T03:54:51;102404.0;;;12.67;62.34
64019;BME280;66942;52.138;5.216;2023-04-08T03:56:27;102405.0;;;12.53;62.63
64019;BME280;66942;52.138;5.216;2023-04-08T03:59:39;102406.0;;;12.85;61.83
64019;BME280;66942;52.138;5.216;2023-04-08T04:01:15;102404.0;;;12.75;62.0
64019;BME280;66942;52.138;5.216;2023-04-08T04:02:51;102403.0;;;12.93;61.61
64019;BME280;66942;52.138;5.216;2023-04-08T04:06:04;102403.0;;;13.03;61.33
64019;BME280;66942;52.138;5.216;2023-04-08T04:07:40;102405.0;;;13.06;61.53
64019;BME280;66942;52.138;5.216;2023-04-08T04:09:16;102408.99999999999;;;12.75;62.42
64019;BME280;66942;52.138;5.216;2023-04-08T04:12:28;102411.99999999999;;;12.95;61.72
64019;BME280;66942;52.138;5.216;2023-04-08T04:14:05;102411.99999999999;;;13.02;61.65
64019;BME280;66942;52.138;5.216;2023-04-08T04:15:41;102415.00000000001;;;12.92;61.88
64019;BME280;66942;52.138;5.216;2023-04-08T04:17:17;102415.00000000001;;;12.98;61.79
64019;BME280;66942;52.138;5.216;2023-04-08T04:20:29;102416.00000000001;;;13.04;61.77
64019;BME280;66942;52.138;5.216;2023-04-08T04:22:05;102417.0;;;13.09;61.65
64019;BME280;66942;52.138;5.216;2023-04-08T04:23:41;102423.0;;;13.01;61.82
64019;BME280;66942;52.138;5.216;2023-04-08T04:26:54;102426.0;;;13.32;61.16
64019;BME280;66942;52.138;5.216;2023-04-08T04:28:30;102426.0;;;13.04;61.81
64019;BME280;66942;52.138;5.216;2023-04-08T04:30:07;102427.0;;;12.96;62.07
64019;BME280;66942;52.138;5.216;2023-04-08T04:33:19;102430.0;;;13.04;62.28
64019;BME280;66942;52.138;5.216;2023-04-08T04:34:55;102431.0;;;13.11;61.68
64019;BME280;66942;52.138;5.216;2023-04-08T04:36:32;102438.00000000001;;;13.38;61.09
64019;BME280;66942;52.138;5.216;2023-04-08T04:39:44;102434.99999999999;;;13.42;60.85
64019;BME280;66942;52.138;5.216;2023-04-08T04:41:20;102441.00000000001;;;13.02;61.9
64019;BME280;66942;52.138;5.216;2023-04-08T04:42:56;102442.0;;;13.28;61.35
64019;BME280;66942;52.138;5.216;2023-04-08T04:44:32;102443.0;;;13.14;61.23
64019;BME280;66942;52.138;5.216;2023-04-08T04:47:44;102445.0;;;13.25;60.84
64019;BME280;66942;52.138;5.216;2023-04-08T04:49:21;102451.0;;;12.92;61.24
64019;BME280;66942;52.138;5.216;2023-04-08T04:50:57;102451.0;;;13.13;59.98
64019;BME280;66942;52.138;5.216;2023-04-08T04:54:12;102453.0;;;13.18;59.36
64019;BME280;66942;52.138;5.216;2023-04-08T04:55:49;102454.0;;;12.95;59.87
64019;BME280;66942;52.138;5.216;2023-04-08T04:57:25;102451.0;;;12.93;59.63
64019;BME280;66942;52.138;5.216;2023-04-08T05:00:38;102459.99999999999;;;12.89;60.04
64019;BME280;66942;52.138;5.216;2023-04-08T05:02:15;102464.00000000001;;;12.92;59.74
64019;BME280;66942;52.138;5.216;2023-04-08T05:03:51;102468.0;;;12.63;60.58
64019;BME280;66942;52.138;5.216;2023-04-08T05:05:27;102463.00000000001;;;12.46;61.02
64019;BME280;66942;52.138;5.216;2023-04-08T05:08:39;102464.00000000001;;;12.55;60.34
64019;BME280;66942;52.138;5.216;2023-04-08T05:10:16;102464.00000000001;;;12.47;60.38
64019;BME280;66942;52.138;5.216;2023-04-08T05:11:52;102467.0;;;12.32;60.47
64019;BME280;66942;52.138;5.216;2023-04-08T05:15:05;102467.0;;;12.43;60.32
64019;BME280;66942;52.138;5.216;2023-04-08T05:16:41;102467.0;;;12.16;60.36
64019;BME280;66942;52.138;5.216;2023-04-08T05:18:17;102471.0;;;12.38;60.21
64019;BME280;66942;52.138;5.216;2023-04-08T05:21:30;102470.0;;;12.08;59.82
64019;BME280;66942;52.138;5.216;2023-04-08T05:23:06;102478.0;;;11.81;60.27
64019;BME280;66942;52.138;5.216;2023-04-08T05:24:42;102476.0;;;11.65;59.35
64019;BME280;66942;52.138;5.216;2023-04-08T05:26:18;102482.0;;;11.64;59.48
64019;BME280;66942;52.138;5.216;2023-04-08T05:29:30;102486.99999999999;;;11.59;59.59
64019;BME280;66942;52.138;5.216;2023-04-08T05:31:07;102482.0;;;11.46;59.73
64019;BME280;66942;52.138;5.216;2023-04-08T05:32:43;102483.99999999999;;;11.35;59.65
64019;BME280;66942;52.138;5.216;2023-04-08T05:35:55;102482.0;;;11.18;59.54
64019;BME280;66942;52.138;5.216;2023-04-08T05:37:31;102483.0;;;11.15;59.54
64019;BME280;66942;52.138;5.216;2023-04-08T05:39:07;102483.99999999999;;;11.02;59.65
64019;BME280;66942;52.138;5.216;2023-04-08T05:42:20;102489.00000000001;;;11.25;59.02
64019;BME280;66942;52.138;5.216;2023-04-08T05:43:56;102493.0;;;10.54;61.33
64019;BME280;66942;52.138;5.216;2023-04-08T05:45:32;102494.0;;;10.79;60.08
64019;BME280;66942;52.138;5.216;2023-04-08T05:48:44;102501.0;;;10.67;60.23
64019;BME280;66942;52.138;5.216;2023-04-08T05:50:20;102506.0;;;11.1;58.74
64019;BME280;66942;52.138;5.216;2023-04-08T05:51:56;102505.0;;;10.88;59.22
64019;BME280;66942;52.138;5.216;2023-04-08T05:53:32;102513.00000000001;;;10.93;59.07
64019;BME280;66942;52.138;5.216;2023-04-08T05:56:45;102516.00000000001;;;10.88;59.37
64019;BME280;66942;52.138;5.216;2023-04-08T05:58:21;102517.0;;;10.9;59.16
64019;BME280;66942;52.138;5.216;2023-04-08T05:59:57;102515.00000000001;;;10.89;59.04
64019;BME280;66942;52.138;5.216;2023-04-08T06:03:09;102513.00000000001;;;10.54;60.15
64019;BME280;66942;52.138;5.216;2023-04-08T06:04:46;102509.99999999999;;;10.28;60.6
64019;BME280;66942;52.138;5.216;2023-04-08T06:06:22;102514.00000000001;;;10.15;61.03
64019;BME280;66942;52.138;5.216;2023-04-08T06:09:34;102515.00000000001;;;10.08;61.39
64019;BME280;66942;52.138;5.216;2023-04-08T06:11:10;102519.0;;;10.17;61.54
64019;BME280;66942;52.138;5.216;2023-04-08T06:12:46;102518.0;;;10.22;61.31
64019;BME280;66942;52.138;5.216;2023-04-08T06:16:09;102521.0;;;10.19;61.16
64019;BME280;66942;52.138;5.216;2023-04-08T06:17:46;102526.0;;;10.19;61.73
64019;BME280;66942;52.138;5.216;2023-04-08T06:19:22;102522.0;;;10.8;59.9
64019;BME280;66942;52.138;5.216;2023-04-08T06:20:58;102523.0;;;10.33;61.08
64019;BME280;66942;52.138;5.216;2023-04-08T06:24:10;102530.0;;;10.72;59.94
64019;BME280;66942;52.138;5.216;2023-04-08T06:25:46;102528.0;;;10.63;60.48
64019;BME280;66942;52.138;5.216;2023-04-08T06:27:22;102526.0;;;10.57;60.93
64019;BME280;66942;52.138;5.216;2023-04-08T06:30:35;102533.0;;;10.68;60.61
64019;BME280;66942;52.138;5.216;2023-04-08T06:32:11;102533.99999999999;;;10.83;60.24
64019;BME280;66942;52.138;5.216;2023-04-08T06:33:47;102536.99999999999;;;10.74;60.61
64019;BME280;66942;52.138;5.216;2023-04-08T06:35:23;102542.0;;;11.0;59.5
64019;BME280;66942;52.138;5.216;2023-04-08T06:38:35;102547.0;;;11.02;59.44
64019;BME280;66942;52.138;5.216;2023-04-08T06:40:12;102550.0;;;10.93;60.07
64019;BME280;66942;52.138;5.216;2023-04-08T06:41:48;102556.0;;;11.01;59.74
64019;BME280;66942;52.138;5.216;2023-04-08T06:45:00;102556.0;;;11.28;59.52
64019;BME280;66942;52.138;5.216;2023-04-08T06:46:36;102554.0;;;11.23;58.89
64019;BME280;66942;52.138;5.216;2023-04-08T06:48:12;102558.99999999999;;;11.29;58.99
64019;BME280;66942;52.138;5.216;2023-04-08T06:51:25;102558.99999999999;;;10.97;59.23
64019;BME280;66942;52.138;5.216;2023-04-08T06:53:01;102569.0;;;11.33;58.68
64019;BME280;66942;52.138;5.216;2023-04-08T06:54:37;102564.00000000001;;;11.71;58.22
64019;BME280;66942;52.138;5.216;2023-04-08T06:57:49;102569.0;;;11.58;58.63
64019;BME280;66942;52.138;5.216;2023-04-08T06:59:26;102566.00000000001;;;11.72;58.63
64019;BME280;66942;52.138;5.216;2023-04-08T07:01:02;102568.0;;;11.7;58.38
64019;BME280;66942;52.138;5.216;2023-04-08T07:02:38;102567.0;;;11.93;57.42
64019;BME280;66942;52.138;5.216;2023-04-08T07:05:51;102573.0;;;12.04;56.89
64019;BME280;66942;52.138;5.216;2023-04-08T07:07:27;102579.0;;;12.18;56.31
64019;BME280;66942;52.138;5.216;2023-04-08T07:09:03;102582.0;;;12.05;56.58
64019;BME280;66942;52.138;5.216;2023-04-08T07:12:15;102583.99999999999;;;12.19;55.92
64019;BME280;66942;52.138;5.216;2023-04-08T07:13:51;102581.0;;;12.33;55.77
64019;BME280;66942;52.138;5.216;2023-04-08T07:15:27;102583.0;;;12.29;55.49
64019;BME280;66942;52.138;5.216;2023-04-08T07:18:40;102583.99999999999;;;12.42;55.46
64019;BME280;66942;52.138;5.216;2023-04-08T07:20:16;102584.99999999999;;;12.45;54.45
64019;BME280;66942;52.138;5.216;2023-04-08T07:21:52;102584.99999999999;;;12.43;53.97
64019;BME280;66942;52.138;5.216;2023-04-08T07:23:28;102588.00000000001;;;12.61;54.56
64019;BME280;66942;52.138;5.216;2023-04-08T07:26:42;102588.00000000001;;;12.81;53.29
64019;BME280;66942;52.138;5.216;2023-04-08T07:28:18;102592.0;;;12.68;54.02
64019;BME280;66942;52.138;5.216;2023-04-08T07:29:54;102596.0;;;12.6;53.78
64019;BME280;66942;52.138;5.216;2023-04-08T07:33:06;102598.0;;;12.62;53.18
64019;BME280;66942;52.138;5.216;2023-04-08T07:34:42;102599.0;;;12.88;54.04
64019;BME280;66942;52.138;5.216;2023-04-08T07:36:18;102598.0;;;13.07;52.94
64019;BME280;66942;52.138;5.216;2023-04-08T07:39:31;102598.0;;;13.04;52.05
64019;BME280;66942;52.138;5.216;2023-04-08T07:41:07;102597.0;;;12.91;53.17
64019;BME280;66942;52.138;5.216;2023-04-08T07:42:43;102601.0;;;13.27;53.1
64019;BME280;66942;52.138;5.216;2023-04-08T07:45:59;102598.0;;;13.73;51.79
64019;BME280;66942;52.138;5.216;2023-04-08T07:47:35;102601.0;;;13.47;54.21
64019;BME280;66942;52.138;5.216;2023-04-08T07:49:11;102603.0;;;13.76;51.79
64019;BME280;66942;52.138;5.216;2023-04-08T07:50:47;102606.0;;;13.63;51.46
64019;BME280;66942;52.138;5.216;2023-04-08T07:53:59;102608.0;;;13.95;50.98
64019;BME280;66942;52.138;5.216;2023-04-08T07:55:36;102608.0;;;14.05;50.64
64019;BME280;66942;52.138;5.216;2023-04-08T07:57:12;102611.99999999999;;;14.23;48.65
64019;BME280;66942;52.138;5.216;2023-04-08T08:00:24;102614.00000000001;;;14.04;48.7
64019;BME280;66942;52.138;5.216;2023-04-08T08:02:00;102614.00000000001;;;14.28;48.0
64019;BME280;66942;52.138;5.216;2023-04-08T08:03:36;102618.0;;;14.32;48.24
64019;BME280;66942;52.138;5.216;2023-04-08T08:06:49;102614.00000000001;;;13.95;47.92
64019;BME280;66942;52.138;5.216;2023-04-08T08:08:25;102611.99999999999;;;14.14;48.16
64019;BME280;66942;52.138;5.216;2023-04-08T08:10:01;102614.00000000001;;;14.26;48.24
64019;BME280;66942;52.138;5.216;2023-04-08T08:11:37;102617.0;;;14.64;48.33
64019;BME280;66942;52.138;5.216;2023-04-08T08:14:50;102614.00000000001;;;14.28;47.3
64019;BME280;66942;52.138;5.216;2023-04-08T08:16:27;102613.00000000001;;;13.94;47.89
64019;BME280;66942;52.138;5.216;2023-04-08T08:18:03;102614.00000000001;;;14.53;46.93
64019;BME280;66942;52.138;5.216;2023-04-08T08:21:15;102614.00000000001;;;14.86;48.49
64019;BME280;66942;52.138;5.216;2023-04-08T08:22:51;102608.99999999999;;;14.77;45.54
64019;BME280;66942;52.138;5.216;2023-04-08T08:24:28;102609.99999999999;;;15.04;44.52
64019;BME280;66942;52.138;5.216;2023-04-08T08:27:42;102615.00000000001;;;15.62;45.89
64019;BME280;66942;52.138;5.216;2023-04-08T08:29:18;102617.0;;;15.79;44.56
64019;BME280;66942;52.138;5.216;2023-04-08T08:30:54;102615.00000000001;;;15.48;42.72
64019;BME280;66942;52.138;5.216;2023-04-08T08:32:30;102618.0;;;15.83;43.11
64019;BME280;66942;52.138;5.216;2023-04-08T08:35:43;102623.0;;;15.75;42.93
64019;BME280;66942;52.138;5.216;2023-04-08T08:37:19;102626.0;;;15.47;43.31
64019;BME280;66942;52.138;5.216;2023-04-08T08:38:55;102624.0;;;15.49;43.39
64019;BME280;66942;52.138;5.216;2023-04-08T08:42:17;102615.00000000001;;;15.65;42.53
64019;BME280;66942;52.138;5.216;2023-04-08T08:43:55;102622.0;;;16.11;42.44
64019;BME280;66942;52.138;5.216;2023-04-08T08:45:32;102623.0;;;16.11;41.2
64019;BME280;66942;52.138;5.216;2023-04-08T08:47:08;102627.0;;;15.89;40.79
64019;BME280;66942;52.138;5.216;2023-04-08T08:50:21;102629.0;;;16.25;40.62
64019;BME280;66942;52.138;5.216;2023-04-08T08:51:57;102626.0;;;16.5;40.31
64019;BME280;66942;52.138;5.216;2023-04-08T08:53:35;102624.0;;;15.66;41.05
64019;BME280;66942;52.138;5.216;2023-04-08T08:56:48;102628.0;;;16.39;42.44
64019;BME280;66942;52.138;5.216;2023-04-08T08:58:25;102633.0;;;16.86;41.41
64019;BME280;66942;52.138;5.216;2023-04-08T09:00:02;102633.99999999999;;;16.59;40.57
64019;BME280;66942;52.138;5.216;2023-04-08T09:03:16;102632.0;;;16.9;42.24
64019;BME280;66942;52.138;5.216;2023-04-08T09:04:56;102633.99999999999;;;17.09;40.25
64019;BME280;66942;52.138;5.216;2023-04-08T09:06:35;102639.00000000001;;;17.16;41.28
64019;BME280;66942;52.138;5.216;2023-04-08T09:08:22;102638.00000000001;;;17.09;39.58
64019;BME280;66942;52.138;5.216;2023-04-08T09:11:36;102636.99999999999;;;17.32;39.72
64019;BME280;66942;52.138;5.216;2023-04-08T09:13:12;102641.00000000001;;;17.56;40.28
64019;BME280;66942;52.138;5.216;2023-04-08T09:14:48;102641.00000000001;;;17.68;39.04
64019;BME280;66942;52.138;5.216;2023-04-08T09:16:25;102634.99999999999;;;17.32;38.54
64019;BME280;66942;52.138;5.216;2023-04-08T09:19:38;102638.00000000001;;;17.52;39.53
64019;BME280;66942;52.138;5.216;2023-04-08T09:21:15;102633.99999999999;;;17.97;40.82
64019;BME280;66942;52.138;5.216;2023-04-08T09:22:57;102638.00000000001;;;18.2;39.4
64019;BME280;66942;52.138;5.216;2023-04-08T09:26:12;102639.00000000001;;;18.22;39.25
64019;BME280;66942;52.138;5.216;2023-04-08T09:27:50;102640.00000000001;;;18.48;39.14
64019;BME280;66942;52.138;5.216;2023-04-08T09:29:26;102646.0;;;18.0;37.94
64019;BME280;66942;52.138;5.216;2023-04-08T09:32:54;102640.00000000001;;;18.68;38.87
64019;BME280;66942;52.138;5.216;2023-04-08T09:34:31;102642.0;;;18.61;39.51
64019;BME280;66942;52.138;5.216;2023-04-08T09:36:07;102639.00000000001;;;18.77;38.92
64019;BME280;66942;52.138;5.216;2023-04-08T09:37:44;102643.0;;;18.38;39.28
64019;BME280;66942;52.138;5.216;2023-04-08T09:40:57;102646.0;;;18.88;39.29
64019;BME280;66942;52.138;5.216;2023-04-08T09:42:39;102640.00000000001;;;19.06;40.07
64019;BME280;66942;52.138;5.216;2023-04-08T09:44:16;102644.0;;;19.12;40.07
64019;BME280;66942;52.138;5.216;2023-04-08T09:45:54;102649.0;;;19.34;40.93
64019;BME280;66942;52.138;5.216;2023-04-08T09:49:25;102651.0;;;18.79;39.83
64019;BME280;66942;52.138;5.216;2023-04-08T09:51:04;102650.0;;;19.45;37.69
64019;BME280;66942;52.138;5.216;2023-04-08T09:52:43;102646.0;;;19.2;37.4
64019;BME280;66942;52.138;5.216;2023-04-08T09:54:23;102644.0;;;19.45;38.03
64019;BME280;66942;52.138;5.216;2023-04-08T09:57:51;102643.0;;;19.43;38.67
64019;BME280;66942;52.138;5.216;2023-04-08T09:59:30;102650.0;;;19.45;37.5
64019;BME280;66942;52.138;5.216;2023-04-08T10:01:13;102649.0;;;19.3;39.24
64019;BME280;66942;52.138;5.216;2023-04-08T10:02:54;102645.0;;;19.0;38.18
64019;BME280;66942;52.138;5.216;2023-04-08T10:04:37;102647.0;;;19.28;37.29
64019;BME280;66942;52.138;5.216;2023-04-08T10:07:54;102642.0;;;19.41;37.89
64019;BME280;66942;52.138;5.216;2023-04-08T10:09:31;102641.00000000001;;;19.18;36.49
64019;BME280;66942;52.138;5.216;2023-04-08T10:11:08;102643.0;;;19.56;39.33
64019;BME280;66942;52.138;5.216;2023-04-08T10:14:21;102639.00000000001;;;19.41;35.71
64019;BME280;66942;52.138;5.216;2023-04-08T10:16:29;102645.0;;;18.96;37.35
64019;BME280;66942;52.138;5.216;2023-04-08T10:18:29;102640.00000000001;;;19.16;34.75
64019;BME280;66942;52.138;5.216;2023-04-08T10:20:40;102642.0;;;19.46;35.67
64019;BME280;66942;52.138;5.216;2023-04-08T10:22:49;102648.0;;;19.11;37.29
64019;BME280;66942;52.138;5.216;2023-04-08T10:24:25;102645.0;;;19.25;35.12
64019;BME280;66942;52.138;5.216;2023-04-08T10:26:28;102644.0;;;19.45;35.71
64019;BME280;66942;52.138;5.216;2023-04-08T10:28:23;102642.0;;;19.04;35.71
64019;BME280;66942;52.138;5.216;2023-04-08T10:29:59;102642.0;;;19.31;35.92
64019;BME280;66942;52.138;5.216;2023-04-08T10:33:17;102638.00000000001;;;19.8;37.68
64019;BME280;66942;52.138;5.216;2023-04-08T10:34:54;102639.00000000001;;;19.84;38.25
64019;BME280;66942;52.138;5.216;2023-04-08T10:36:30;102638.00000000001;;;19.45;38.06
64019;BME280;66942;52.138;5.216;2023-04-08T10:38:06;102638.00000000001;;;19.89;35.42
64019;BME280;66942;52.138;5.216;2023-04-08T10:41:24;102633.0;;;20.11;37.87
64019;BME280;66942;52.138;5.216;2023-04-08T10:43:00;102633.99999999999;;;20.28;34.36
64019;BME280;66942;52.138;5.216;2023-04-08T10:44:36;102625.0;;;20.37;33.54